sensor_id;sensor_type;location;lat;lon;timestamp;P1;durP1;ratioP1;P2;durP2;ratioP2
10063;SDS011;5071;52.360;13.134;2023-02-15T00:03:11;16.43;;;8.30;;
10063;SDS011;5071;52.360;13.134;2023-02-15T00:08:14;17.97;;;8.03;;
10063;SDS011;5071;52.360;13.134;2023-02-15T00:13:16;19.70;;;7.63;;
10063;SDS011;5071;52.360;13.134;2023-02-15T00:18:21;16.63;;;7.63;;
10063;SDS011;5071;52.360;13.134;2023-02-15T00:23:33;19.20;;;8.87;;
10063;SDS011;5071;52.360;13.134;2023-02-15T00:28:38;15.37;;;8.13;;
10063;SDS011;5071;52.360;13.134;2023-02-15T00:33:40;15.80;;;7.70;;
10063;SDS011;5071;52.360;13.134;2023-02-15T00:38:43;21.07;;;9.30;;
10063;SDS011;5071;52.360;13.134;2023-02-15T00:43:45;16.07;;;7.53;;
10063;SDS011;5071;52.360;13.134;2023-02-15T00:48:47;22.70;;;9.70;;
10063;SDS011;5071;52.360;13.134;2023-02-15T00:53:50;12.57;;;7.03;;
10063;SDS011;5071;52.360;13.134;2023-02-15T00:59:08;18.27;;;7.43;;
10063;SDS011;5071;52.360;13.134;2023-02-15T01:04:10;19.70;;;8.37;;
10063;SDS011;5071;52.360;13.134;2023-02-15T01:09:21;15.73;;;7.77;;
10063;SDS011;5071;52.360;13.134;2023-02-15T01:14:23;18.80;;;8.97;;
10063;SDS011;5071;52.360;13.134;2023-02-15T01:19:28;17.93;;;8.63;;
10063;SDS011;5071;52.360;13.134;2023-02-15T01:24:32;13.70;;;8.30;;
10063;SDS011;5071;52.360;13.134;2023-02-15T01:29:34;16.60;;;9.30;;
10063;SDS011;5071;52.360;13.134;2023-02-15T01:34:36;14.90;;;7.10;;
10063;SDS011;5071;52.360;13.134;2023-02-15T01:39:39;19.10;;;8.53;;
10063;SDS011;5071;52.360;13.134;2023-02-15T01:44:55;20.23;;;9.40;;
10063;SDS011;5071;52.360;13.134;2023-02-15T01:50:05;27.87;;;11.40;;
10063;SDS011;5071;52.360;13.134;2023-02-15T01:55:17;16.30;;;8.67;;
10063;SDS011;5071;52.360;13.134;2023-02-15T02:00:28;19.47;;;8.47;;
10063;SDS011;5071;52.360;13.134;2023-02-15T02:05:44;18.47;;;8.93;;
10063;SDS011;5071;52.360;13.134;2023-02-15T02:16:16;17.60;;;8.40;;
10063;SDS011;5071;52.360;13.134;2023-02-15T02:21:30;21.20;;;9.03;;
10063;SDS011;5071;52.360;13.134;2023-02-15T02:38:24;25.33;;;9.43;;
10063;SDS011;5071;52.360;13.134;2023-02-15T02:43:35;18.43;;;9.30;;
10063;SDS011;5071;52.360;13.134;2023-02-15T02:48:46;20.03;;;8.70;;
10063;SDS011;5071;52.360;13.134;2023-02-15T02:53:52;19.47;;;9.43;;
10063;SDS011;5071;52.360;13.134;2023-02-15T02:59:01;23.03;;;8.87;;
10063;SDS011;5071;52.360;13.134;2023-02-15T03:04:10;19.53;;;8.80;;
10063;SDS011;5071;52.360;13.134;2023-02-15T03:09:18;20.83;;;9.03;;
10063;SDS011;5071;52.360;13.134;2023-02-15T03:14:26;23.30;;;9.87;;
10063;SDS011;5071;52.360;13.134;2023-02-15T03:19:33;19.57;;;8.57;;
10063;SDS011;5071;52.360;13.134;2023-02-15T03:24:39;18.00;;;8.23;;
10063;SDS011;5071;52.360;13.134;2023-02-15T03:29:45;18.33;;;8.70;;
10063;SDS011;5071;52.360;13.134;2023-02-15T03:34:53;20.33;;;9.83;;
10063;SDS011;5071;52.360;13.134;2023-02-15T03:39:56;17.80;;;7.30;;
10063;SDS011;5071;52.360;13.134;2023-02-15T03:45:03;10.20;;;5.90;;
10063;SDS011;5071;52.360;13.134;2023-02-15T03:50:12;22.40;;;7.87;;
10063;SDS011;5071;52.360;13.134;2023-02-15T03:55:19;14.97;;;7.13;;
10063;SDS011;5071;52.360;13.134;2023-02-15T04:00:22;14.47;;;6.57;;
10063;SDS011;5071;52.360;13.134;2023-02-15T04:05:27;13.90;;;6.90;;
10063;SDS011;5071;52.360;13.134;2023-02-15T04:10:30;13.03;;;7.37;;
10063;SDS011;5071;52.360;13.134;2023-02-15T04:15:32;16.57;;;7.20;;
10063;SDS011;5071;52.360;13.134;2023-02-15T04:20:35;12.50;;;6.50;;
10063;SDS011;5071;52.360;13.134;2023-02-15T04:25:37;14.37;;;6.90;;
10063;SDS011;5071;52.360;13.134;2023-02-15T04:30:40;13.97;;;7.13;;
10063;SDS011;5071;52.360;13.134;2023-02-15T04:35:44;15.00;;;7.60;;
10063;SDS011;5071;52.360;13.134;2023-02-15T04:40:49;17.97;;;8.43;;
10063;SDS011;5071;52.360;13.134;2023-02-15T04:45:51;17.47;;;9.27;;
10063;SDS011;5071;52.360;13.134;2023-02-15T04:50:55;18.87;;;8.43;;
10063;SDS011;5071;52.360;13.134;2023-02-15T04:55:57;25.10;;;10.00;;
10063;SDS011;5071;52.360;13.134;2023-02-15T05:00:59;30.53;;;12.67;;
10063;SDS011;5071;52.360;13.134;2023-02-15T05:06:03;42.80;;;12.50;;
10063;SDS011;5071;52.360;13.134;2023-02-15T05:11:05;38.27;;;12.77;;
10063;SDS011;5071;52.360;13.134;2023-02-15T05:16:08;60.17;;;14.80;;
10063;SDS011;5071;52.360;13.134;2023-02-15T05:21:11;46.03;;;15.23;;
10063;SDS011;5071;52.360;13.134;2023-02-15T05:26:15;41.30;;;13.20;;
10063;SDS011;5071;52.360;13.134;2023-02-15T05:31:19;40.20;;;13.97;;
10063;SDS011;5071;52.360;13.134;2023-02-15T05:36:23;34.27;;;13.90;;
10063;SDS011;5071;52.360;13.134;2023-02-15T05:41:25;35.67;;;12.20;;
10063;SDS011;5071;52.360;13.134;2023-02-15T05:46:28;33.67;;;13.17;;
10063;SDS011;5071;52.360;13.134;2023-02-15T05:51:31;65.17;;;11.83;;
10063;SDS011;5071;52.360;13.134;2023-02-15T05:56:34;39.20;;;12.00;;
10063;SDS011;5071;52.360;13.134;2023-02-15T06:01:36;34.07;;;12.13;;
10063;SDS011;5071;52.360;13.134;2023-02-15T06:06:39;34.70;;;12.03;;
10063;SDS011;5071;52.360;13.134;2023-02-15T06:11:42;32.80;;;11.07;;
10063;SDS011;5071;52.360;13.134;2023-02-15T06:16:44;36.10;;;12.63;;
10063;SDS011;5071;52.360;13.134;2023-02-15T06:21:47;42.90;;;13.70;;
10063;SDS011;5071;52.360;13.134;2023-02-15T06:26:50;29.93;;;12.77;;
10063;SDS011;5071;52.360;13.134;2023-02-15T06:31:52;36.73;;;14.27;;
10063;SDS011;5071;52.360;13.134;2023-02-15T06:36:56;33.13;;;12.17;;
10063;SDS011;5071;52.360;13.134;2023-02-15T06:41:58;45.93;;;13.20;;
10063;SDS011;5071;52.360;13.134;2023-02-15T06:47:01;70.33;;;13.90;;
10063;SDS011;5071;52.360;13.134;2023-02-15T06:52:05;35.17;;;12.23;;
10063;SDS011;5071;52.360;13.134;2023-02-15T06:57:07;21.27;;;10.53;;
10063;SDS011;5071;52.360;13.134;2023-02-15T07:02:13;43.33;;;11.70;;
10063;SDS011;5071;52.360;13.134;2023-02-15T07:07:16;35.43;;;13.37;;
10063;SDS011;5071;52.360;13.134;2023-02-15T07:12:18;47.83;;;14.43;;
10063;SDS011;5071;52.360;13.134;2023-02-15T07:17:20;40.97;;;12.93;;
10063;SDS011;5071;52.360;13.134;2023-02-15T07:22:39;35.20;;;13.63;;
10063;SDS011;5071;52.360;13.134;2023-02-15T07:27:44;38.27;;;14.40;;
10063;SDS011;5071;52.360;13.134;2023-02-15T07:32:47;67.07;;;14.67;;
10063;SDS011;5071;52.360;13.134;2023-02-15T07:37:50;41.30;;;13.20;;
10063;SDS011;5071;52.360;13.134;2023-02-15T07:42:52;46.27;;;12.90;;
10063;SDS011;5071;52.360;13.134;2023-02-15T07:47:54;40.77;;;13.80;;
10063;SDS011;5071;52.360;13.134;2023-02-15T07:52:57;47.47;;;15.20;;
10063;SDS011;5071;52.360;13.134;2023-02-15T07:58:00;43.43;;;16.70;;
10063;SDS011;5071;52.360;13.134;2023-02-15T08:03:02;39.23;;;15.37;;
10063;SDS011;5071;52.360;13.134;2023-02-15T08:08:06;47.47;;;15.63;;
10063;SDS011;5071;52.360;13.134;2023-02-15T08:13:09;63.27;;;16.00;;
10063;SDS011;5071;52.360;13.134;2023-02-15T08:18:11;50.97;;;15.63;;
10063;SDS011;5071;52.360;13.134;2023-02-15T08:23:14;36.87;;;14.47;;
10063;SDS011;5071;52.360;13.134;2023-02-15T08:28:17;38.57;;;16.57;;
10063;SDS011;5071;52.360;13.134;2023-02-15T08:33:19;49.23;;;15.17;;
10063;SDS011;5071;52.360;13.134;2023-02-15T08:38:22;33.20;;;13.43;;
10063;SDS011;5071;52.360;13.134;2023-02-15T08:43:24;45.90;;;18.00;;
10063;SDS011;5071;52.360;13.134;2023-02-15T08:48:26;50.57;;;16.10;;
10063;SDS011;5071;52.360;13.134;2023-02-15T08:53:30;49.70;;;17.97;;
10063;SDS011;5071;52.360;13.134;2023-02-15T08:58:33;49.50;;;17.60;;
10063;SDS011;5071;52.360;13.134;2023-02-15T09:03:35;46.73;;;17.53;;
10063;SDS011;5071;52.360;13.134;2023-02-15T09:08:39;42.97;;;17.50;;
10063;SDS011;5071;52.360;13.134;2023-02-15T09:13:41;51.00;;;18.20;;
10063;SDS011;5071;52.360;13.134;2023-02-15T09:18:44;53.20;;;18.53;;
10063;SDS011;5071;52.360;13.134;2023-02-15T09:23:49;63.47;;;20.13;;
10063;SDS011;5071;52.360;13.134;2023-02-15T09:28:52;55.17;;;21.03;;
10063;SDS011;5071;52.360;13.134;2023-02-15T09:33:55;58.30;;;20.70;;
10063;SDS011;5071;52.360;13.134;2023-02-15T09:39:00;63.23;;;18.73;;
10063;SDS011;5071;52.360;13.134;2023-02-15T09:44:11;51.90;;;20.93;;
10063;SDS011;5071;52.360;13.134;2023-02-15T09:49:23;62.50;;;21.03;;
10063;SDS011;5071;52.360;13.134;2023-02-15T09:54:37;56.23;;;20.90;;
10063;SDS011;5071;52.360;13.134;2023-02-15T09:59:51;55.30;;;20.87;;
10063;SDS011;5071;52.360;13.134;2023-02-15T10:05:05;51.73;;;19.30;;
10063;SDS011;5071;52.360;13.134;2023-02-15T10:10:21;56.97;;;20.43;;
10063;SDS011;5071;52.360;13.134;2023-02-15T10:15:41;47.93;;;19.07;;
10063;SDS011;5071;52.360;13.134;2023-02-15T10:20:55;47.83;;;19.13;;
10063;SDS011;5071;52.360;13.134;2023-02-15T10:26:07;43.80;;;18.17;;
10063;SDS011;5071;52.360;13.134;2023-02-15T10:31:23;42.63;;;18.93;;
10063;SDS011;5071;52.360;13.134;2023-02-15T10:36:31;36.53;;;16.77;;
10063;SDS011;5071;52.360;13.134;2023-02-15T10:41:46;33.13;;;17.27;;
10063;SDS011;5071;52.360;13.134;2023-02-15T10:46:59;29.10;;;14.57;;
10063;SDS011;5071;52.360;13.134;2023-02-15T10:52:21;33.63;;;15.00;;
10063;SDS011;5071;52.360;13.134;2023-02-15T10:57:36;29.33;;;14.63;;
10063;SDS011;5071;52.360;13.134;2023-02-15T11:02:50;28.97;;;15.63;;
10063;SDS011;5071;52.360;13.134;2023-02-15T11:08:11;32.40;;;14.97;;
10063;SDS011;5071;52.360;13.134;2023-02-15T11:13:17;28.27;;;14.70;;
10063;SDS011;5071;52.360;13.134;2023-02-15T11:18:21;23.67;;;13.13;;
10063;SDS011;5071;52.360;13.134;2023-02-15T11:23:29;22.33;;;12.10;;
10063;SDS011;5071;52.360;13.134;2023-02-15T11:28:42;22.70;;;11.83;;
10063;SDS011;5071;52.360;13.134;2023-02-15T11:33:49;19.27;;;10.97;;
10063;SDS011;5071;52.360;13.134;2023-02-15T11:38:56;19.70;;;11.93;;
10063;SDS011;5071;52.360;13.134;2023-02-15T11:44:05;18.70;;;11.40;;
10063;SDS011;5071;52.360;13.134;2023-02-15T11:49:19;19.30;;;11.53;;
10063;SDS011;5071;52.360;13.134;2023-02-15T11:54:26;18.90;;;11.57;;
10063;SDS011;5071;52.360;13.134;2023-02-15T11:59:34;18.63;;;11.07;;
10063;SDS011;5071;52.360;13.134;2023-02-15T12:04:40;21.30;;;12.23;;
10063;SDS011;5071;52.360;13.134;2023-02-15T12:09:46;18.30;;;11.30;;
10063;SDS011;5071;52.360;13.134;2023-02-15T12:14:55;18.87;;;10.83;;
10063;SDS011;5071;52.360;13.134;2023-02-15T12:19:59;19.27;;;11.20;;
10063;SDS011;5071;52.360;13.134;2023-02-15T12:25:04;17.53;;;10.30;;
10063;SDS011;5071;52.360;13.134;2023-02-15T12:30:25;17.93;;;9.37;;
10063;SDS011;5071;52.360;13.134;2023-02-15T12:35:57;14.63;;;8.93;;
10063;SDS011;5071;52.360;13.134;2023-02-15T12:41:05;13.47;;;7.97;;
10063;SDS011;5071;52.360;13.134;2023-02-15T12:46:25;10.80;;;7.10;;
10063;SDS011;5071;52.360;13.134;2023-02-15T12:51:28;10.33;;;6.87;;
10063;SDS011;5071;52.360;13.134;2023-02-15T12:56:29;11.17;;;6.93;;
10063;SDS011;5071;52.360;13.134;2023-02-15T13:01:32;11.70;;;6.80;;
10063;SDS011;5071;52.360;13.134;2023-02-15T13:06:35;10.03;;;6.37;;
10063;SDS011;5071;52.360;13.134;2023-02-15T13:11:38;9.70;;;6.10;;
10063;SDS011;5071;52.360;13.134;2023-02-15T13:16:45;9.30;;;5.20;;
10063;SDS011;5071;52.360;13.134;2023-02-15T13:21:50;7.50;;;5.67;;
10063;SDS011;5071;52.360;13.134;2023-02-15T13:26:55;8.60;;;6.07;;
10063;SDS011;5071;52.360;13.134;2023-02-15T13:32:22;8.83;;;6.03;;
10063;SDS011;5071;52.360;13.134;2023-02-15T13:37:36;7.37;;;5.57;;
10063;SDS011;5071;52.360;13.134;2023-02-15T13:42:53;8.90;;;5.30;;
10063;SDS011;5071;52.360;13.134;2023-02-15T13:48:00;7.67;;;5.17;;
10063;SDS011;5071;52.360;13.134;2023-02-15T13:53:19;7.27;;;5.13;;
10063;SDS011;5071;52.360;13.134;2023-02-15T13:58:46;6.37;;;4.63;;
10063;SDS011;5071;52.360;13.134;2023-02-15T14:04:09;7.47;;;5.70;;
10063;SDS011;5071;52.360;13.134;2023-02-15T14:09:30;10.93;;;6.37;;
10063;SDS011;5071;52.360;13.134;2023-02-15T14:20:14;8.17;;;5.87;;
10063;SDS011;5071;52.360;13.134;2023-02-15T14:25:25;8.80;;;6.10;;
10063;SDS011;5071;52.360;13.134;2023-02-15T14:30:33;8.50;;;5.63;;
10063;SDS011;5071;52.360;13.134;2023-02-15T14:35:39;8.00;;;6.17;;
10063;SDS011;5071;52.360;13.134;2023-02-15T14:40:45;7.60;;;6.07;;
10063;SDS011;5071;52.360;13.134;2023-02-15T14:45:55;10.00;;;5.90;;
10063;SDS011;5071;52.360;13.134;2023-02-15T14:51:05;13.47;;;5.80;;
10063;SDS011;5071;52.360;13.134;2023-02-15T14:56:18;8.27;;;5.60;;
10063;SDS011;5071;52.360;13.134;2023-02-15T15:01:24;8.60;;;5.20;;
10063;SDS011;5071;52.360;13.134;2023-02-15T15:06:31;10.90;;;6.53;;
10063;SDS011;5071;52.360;13.134;2023-02-15T15:11:40;7.67;;;5.73;;
10063;SDS011;5071;52.360;13.134;2023-02-15T15:16:50;8.00;;;5.77;;
10063;SDS011;5071;52.360;13.134;2023-02-15T15:21:57;9.97;;;5.87;;
10063;SDS011;5071;52.360;13.134;2023-02-15T15:32:44;11.40;;;8.63;;
10063;SDS011;5071;52.360;13.134;2023-02-15T15:37:59;10.77;;;7.60;;
10063;SDS011;5071;52.360;13.134;2023-02-15T15:49:00;9.13;;;5.43;;
10063;SDS011;5071;52.360;13.134;2023-02-15T15:54:06;8.33;;;5.87;;
10063;SDS011;5071;52.360;13.134;2023-02-15T15:59:18;9.77;;;5.50;;
10063;SDS011;5071;52.360;13.134;2023-02-15T16:04:23;6.87;;;4.97;;
10063;SDS011;5071;52.360;13.134;2023-02-15T16:09:29;8.47;;;5.43;;
10063;SDS011;5071;52.360;13.134;2023-02-15T16:14:32;7.73;;;5.23;;
10063;SDS011;5071;52.360;13.134;2023-02-15T16:19:38;8.37;;;5.20;;
10063;SDS011;5071;52.360;13.134;2023-02-15T16:24:56;10.83;;;5.03;;
10063;SDS011;5071;52.360;13.134;2023-02-15T16:30:18;7.60;;;5.03;;
10063;SDS011;5071;52.360;13.134;2023-02-15T16:40:57;7.67;;;4.40;;
10063;SDS011;5071;52.360;13.134;2023-02-15T16:46:02;8.30;;;4.23;;
10063;SDS011;5071;52.360;13.134;2023-02-15T16:51:06;8.00;;;4.83;;
10063;SDS011;5071;52.360;13.134;2023-02-15T16:56:10;10.70;;;5.23;;
10063;SDS011;5071;52.360;13.134;2023-02-15T17:01:13;6.57;;;4.20;;
10063;SDS011;5071;52.360;13.134;2023-02-15T17:06:18;8.33;;;4.70;;
10063;SDS011;5071;52.360;13.134;2023-02-15T17:11:32;7.43;;;4.90;;
10063;SDS011;5071;52.360;13.134;2023-02-15T17:16:47;9.13;;;5.17;;
10063;SDS011;5071;52.360;13.134;2023-02-15T17:21:52;8.07;;;5.03;;
10063;SDS011;5071;52.360;13.134;2023-02-15T17:26:59;7.83;;;5.10;;
10063;SDS011;5071;52.360;13.134;2023-02-15T17:32:06;7.53;;;5.17;;
10063;SDS011;5071;52.360;13.134;2023-02-15T17:37:24;8.87;;;5.53;;
10063;SDS011;5071;52.360;13.134;2023-02-15T17:42:31;8.90;;;6.00;;
10063;SDS011;5071;52.360;13.134;2023-02-15T17:47:34;11.47;;;6.37;;
10063;SDS011;5071;52.360;13.134;2023-02-15T17:53:01;9.67;;;6.07;;
10063;SDS011;5071;52.360;13.134;2023-02-15T17:58:20;7.77;;;5.70;;
10063;SDS011;5071;52.360;13.134;2023-02-15T18:03:23;10.13;;;6.27;;
10063;SDS011;5071;52.360;13.134;2023-02-15T18:08:26;7.87;;;5.50;;
10063;SDS011;5071;52.360;13.134;2023-02-15T18:13:30;8.03;;;4.93;;
10063;SDS011;5071;52.360;13.134;2023-02-15T18:18:32;12.87;;;5.63;;
10063;SDS011;5071;52.360;13.134;2023-02-15T18:23:35;9.53;;;5.60;;
10063;SDS011;5071;52.360;13.134;2023-02-15T18:28:39;9.00;;;5.53;;
10063;SDS011;5071;52.360;13.134;2023-02-15T18:34:21;8.97;;;5.53;;
10063;SDS011;5071;52.360;13.134;2023-02-15T18:39:32;8.27;;;5.30;;
10063;SDS011;5071;52.360;13.134;2023-02-15T18:44:39;12.87;;;6.03;;
10063;SDS011;5071;52.360;13.134;2023-02-15T18:49:51;10.87;;;5.90;;
10063;SDS011;5071;52.360;13.134;2023-02-15T18:54:59;11.60;;;5.97;;
10063;SDS011;5071;52.360;13.134;2023-02-15T19:00:09;8.80;;;5.93;;
10063;SDS011;5071;52.360;13.134;2023-02-15T19:05:15;10.67;;;6.77;;
10063;SDS011;5071;52.360;13.134;2023-02-15T19:10:18;10.37;;;5.43;;
10063;SDS011;5071;52.360;13.134;2023-02-15T19:15:23;12.13;;;7.03;;
10063;SDS011;5071;52.360;13.134;2023-02-15T19:20:34;15.63;;;9.77;;
10063;SDS011;5071;52.360;13.134;2023-02-15T19:25:39;17.43;;;10.00;;
10063;SDS011;5071;52.360;13.134;2023-02-15T19:30:44;17.13;;;9.30;;
10063;SDS011;5071;52.360;13.134;2023-02-15T19:35:51;16.50;;;9.20;;
10063;SDS011;5071;52.360;13.134;2023-02-15T19:40:58;11.60;;;7.17;;
10063;SDS011;5071;52.360;13.134;2023-02-15T19:46:05;13.07;;;8.50;;
10063;SDS011;5071;52.360;13.134;2023-02-15T19:51:16;16.90;;;8.50;;
10063;SDS011;5071;52.360;13.134;2023-02-15T19:56:20;15.73;;;8.37;;
10063;SDS011;5071;52.360;13.134;2023-02-15T20:01:26;14.50;;;9.10;;
10063;SDS011;5071;52.360;13.134;2023-02-15T20:06:29;13.63;;;7.53;;
10063;SDS011;5071;52.360;13.134;2023-02-15T20:11:35;11.40;;;7.83;;
10063;SDS011;5071;52.360;13.134;2023-02-15T20:16:40;20.60;;;10.57;;
10063;SDS011;5071;52.360;13.134;2023-02-15T20:21:43;16.60;;;9.90;;
10063;SDS011;5071;52.360;13.134;2023-02-15T20:26:47;18.77;;;9.53;;
10063;SDS011;5071;52.360;13.134;2023-02-15T20:31:51;15.23;;;8.90;;
10063;SDS011;5071;52.360;13.134;2023-02-15T20:36:56;15.17;;;8.57;;
10063;SDS011;5071;52.360;13.134;2023-02-15T20:41:58;12.87;;;8.03;;
10063;SDS011;5071;52.360;13.134;2023-02-15T20:47:02;12.77;;;7.57;;
10063;SDS011;5071;52.360;13.134;2023-02-15T20:52:11;14.43;;;7.80;;
10063;SDS011;5071;52.360;13.134;2023-02-15T20:57:19;13.77;;;7.20;;
10063;SDS011;5071;52.360;13.134;2023-02-15T21:02:23;10.77;;;7.33;;
10063;SDS011;5071;52.360;13.134;2023-02-15T21:07:26;13.30;;;8.47;;
10063;SDS011;5071;52.360;13.134;2023-02-15T21:12:28;12.53;;;7.57;;
10063;SDS011;5071;52.360;13.134;2023-02-15T21:17:32;12.90;;;7.83;;
10063;SDS011;5071;52.360;13.134;2023-02-15T21:22:35;12.93;;;7.73;;
10063;SDS011;5071;52.360;13.134;2023-02-15T21:27:37;14.60;;;8.20;;
10063;SDS011;5071;52.360;13.134;2023-02-15T21:32:41;14.53;;;8.70;;
10063;SDS011;5071;52.360;13.134;2023-02-15T21:37:44;14.93;;;7.63;;
10063;SDS011;5071;52.360;13.134;2023-02-15T21:42:48;11.83;;;7.77;;
10063;SDS011;5071;52.360;13.134;2023-02-15T21:47:52;15.87;;;8.33;;
10063;SDS011;5071;52.360;13.134;2023-02-15T21:52:54;17.57;;;9.07;;
10063;SDS011;5071;52.360;13.134;2023-02-15T21:57:57;14.40;;;8.53;;
10063;SDS011;5071;52.360;13.134;2023-02-15T22:03:00;13.37;;;8.13;;
10063;SDS011;5071;52.360;13.134;2023-02-15T22:08:04;14.57;;;8.10;;
10063;SDS011;5071;52.360;13.134;2023-02-15T22:13:12;14.80;;;8.03;;
10063;SDS011;5071;52.360;13.134;2023-02-15T22:18:19;17.20;;;8.03;;
10063;SDS011;5071;52.360;13.134;2023-02-15T22:23:22;22.70;;;11.33;;
10063;SDS011;5071;52.360;13.134;2023-02-15T22:28:26;21.97;;;11.87;;
10063;SDS011;5071;52.360;13.134;2023-02-15T22:33:33;15.93;;;9.47;;
10063;SDS011;5071;52.360;13.134;2023-02-15T22:38:36;12.67;;;8.60;;
10063;SDS011;5071;52.360;13.134;2023-02-15T22:43:39;15.10;;;8.07;;
10063;SDS011;5071;52.360;13.134;2023-02-15T22:48:44;19.83;;;8.80;;
10063;SDS011;5071;52.360;13.134;2023-02-15T22:53:47;14.30;;;8.80;;
10063;SDS011;5071;52.360;13.134;2023-02-15T22:58:49;14.70;;;8.00;;
10063;SDS011;5071;52.360;13.134;2023-02-15T23:03:52;14.13;;;7.60;;
10063;SDS011;5071;52.360;13.134;2023-02-15T23:08:55;17.70;;;9.00;;
10063;SDS011;5071;52.360;13.134;2023-02-15T23:13:57;13.13;;;7.97;;
10063;SDS011;5071;52.360;13.134;2023-02-15T23:19:00;12.00;;;7.43;;
10063;SDS011;5071;52.360;13.134;2023-02-15T23:24:08;15.60;;;8.43;;
10063;SDS011;5071;52.360;13.134;2023-02-15T23:29:19;11.83;;;7.47;;
10063;SDS011;5071;52.360;13.134;2023-02-15T23:34:24;12.77;;;7.43;;
10063;SDS011;5071;52.360;13.134;2023-02-15T23:39:28;15.37;;;7.80;;
10063;SDS011;5071;52.360;13.134;2023-02-15T23:44:30;14.50;;;7.70;;
10063;SDS011;5071;52.360;13.134;2023-02-15T23:49:34;17.07;;;8.47;;
10063;SDS011;5071;52.360;13.134;2023-02-15T23:54:36;15.27;;;8.77;;
10063;SDS011;5071;52.360;13.134;2023-02-15T23:59:38;15.23;;;8.27;;
